sensor_id;sensor_type;location;lat;lon;timestamp;temperature;humidity
74384;DHT22;62824;52.994;-3.936;2023-10-19T00:00:37;12.30;99.90
74384;DHT22;62824;52.994;-3.936;2023-10-19T00:03:06;12.30;99.90
74384;DHT22;62824;52.994;-3.936;2023-10-19T00:05:33;12.30;99.90
74384;DHT22;62824;52.994;-3.936;2023-10-19T00:07:59;12.30;99.90
74384;DHT22;62824;52.994;-3.936;2023-10-19T00:10:30;12.30;99.90
74384;DHT22;62824;52.994;-3.936;2023-10-19T00:13:01;12.30;99.90
74384;DHT22;62824;52.994;-3.936;2023-10-19T00:15:37;12.30;99.90
74384;DHT22;62824;52.994;-3.936;2023-10-19T00:18:06;12.20;99.90
74384;DHT22;62824;52.994;-3.936;2023-10-19T00:20:51;12.30;99.90
74384;DHT22;62824;52.994;-3.936;2023-10-19T00:23:19;12.30;99.90
74384;DHT22;62824;52.994;-3.936;2023-10-19T00:25:58;12.30;99.90
74384;DHT22;62824;52.994;-3.936;2023-10-19T00:28:25;12.30;99.90
74384;DHT22;62824;52.994;-3.936;2023-10-19T00:30:54;12.20;99.90
74384;DHT22;62824;52.994;-3.936;2023-10-19T00:33:26;12.30;99.90
74384;DHT22;62824;52.994;-3.936;2023-10-19T00:35:54;12.20;99.90
74384;DHT22;62824;52.994;-3.936;2023-10-19T00:38:40;12.30;99.90
74384;DHT22;62824;52.994;-3.936;2023-10-19T00:41:09;12.30;99.90
74384;DHT22;62824;52.994;-3.936;2023-10-19T00:43:37;12.30;99.90
74384;DHT22;62824;52.994;-3.936;2023-10-19T00:46:18;12.30;99.90
74384;DHT22;62824;52.994;-3.936;2023-10-19T00:48:47;12.40;99.90
74384;DHT22;62824;52.994;-3.936;2023-10-19T00:51:14;12.30;99.90
74384;DHT22;62824;52.994;-3.936;2023-10-19T00:54:26;12.40;99.90
74384;DHT22;62824;52.994;-3.936;2023-10-19T00:57:06;12.40;99.90
74384;DHT22;62824;52.994;-3.936;2023-10-19T00:59:40;12.40;99.90
74384;DHT22;62824;52.994;-3.936;2023-10-19T01:02:13;12.40;99.90
74384;DHT22;62824;52.994;-3.936;2023-10-19T01:04:52;12.40;99.90
74384;DHT22;62824;52.994;-3.936;2023-10-19T01:07:27;12.40;99.90
74384;DHT22;62824;52.994;-3.936;2023-10-19T01:10:01;12.40;99.90
74384;DHT22;62824;52.994;-3.936;2023-10-19T01:12:30;12.40;99.90
74384;DHT22;62824;52.994;-3.936;2023-10-19T01:15:12;12.40;99.90
74384;DHT22;62824;52.994;-3.936;2023-10-19T01:17:47;12.30;99.90
74384;DHT22;62824;52.994;-3.936;2023-10-19T01:20:22;12.30;99.90
74384;DHT22;62824;52.994;-3.936;2023-10-19T01:23:08;12.30;99.90
74384;DHT22;62824;52.994;-3.936;2023-10-19T01:31:09;12.30;99.90
74384;DHT22;62824;52.994;-3.936;2023-10-19T01:33:41;12.30;99.90
74384;DHT22;62824;52.994;-3.936;2023-10-19T01:36:08;12.30;99.90
74384;DHT22;62824;52.994;-3.936;2023-10-19T01:38:41;12.30;99.90
74384;DHT22;62824;52.994;-3.936;2023-10-19T01:41:07;12.30;99.90
74384;DHT22;62824;52.994;-3.936;2023-10-19T01:43:43;12.30;99.90
74384;DHT22;62824;52.994;-3.936;2023-10-19T01:46:09;12.30;99.90
74384;DHT22;62824;52.994;-3.936;2023-10-19T01:48:42;12.20;99.90
74384;DHT22;62824;52.994;-3.936;2023-10-19T01:51:09;12.20;99.90
74384;DHT22;62824;52.994;-3.936;2023-10-19T01:53:39;12.20;99.90
74384;DHT22;62824;52.994;-3.936;2023-10-19T01:56:08;12.20;99.90
74384;DHT22;62824;52.994;-3.936;2023-10-19T01:58:39;12.10;99.90
74384;DHT22;62824;52.994;-3.936;2023-10-19T02:01:06;12.10;99.90
74384;DHT22;62824;52.994;-3.936;2023-10-19T02:03:41;12.10;99.90
74384;DHT22;62824;52.994;-3.936;2023-10-19T02:06:11;12.10;99.90
74384;DHT22;62824;52.994;-3.936;2023-10-19T02:09:02;12.20;99.90
74384;DHT22;62824;52.994;-3.936;2023-10-19T02:11:44;12.20;99.90
74384;DHT22;62824;52.994;-3.936;2023-10-19T02:14:14;12.10;99.90
74384;DHT22;62824;52.994;-3.936;2023-10-19T02:16:48;12.10;99.90
74384;DHT22;62824;52.994;-3.936;2023-10-19T02:19:17;12.20;99.90
74384;DHT22;62824;52.994;-3.936;2023-10-19T02:21:43;12.10;99.90
74384;DHT22;62824;52.994;-3.936;2023-10-19T02:24:13;12.10;99.90
74384;DHT22;62824;52.994;-3.936;2023-10-19T02:26:43;12.10;99.90
74384;DHT22;62824;52.994;-3.936;2023-10-19T02:29:10;12.00;99.90
74384;DHT22;62824;52.994;-3.936;2023-10-19T02:31:36;12.00;99.90
74384;DHT22;62824;52.994;-3.936;2023-10-19T02:34:07;12.00;99.90
74384;DHT22;62824;52.994;-3.936;2023-10-19T02:36:34;12.00;99.90
74384;DHT22;62824;52.994;-3.936;2023-10-19T02:39:05;12.00;99.90
74384;DHT22;62824;52.994;-3.936;2023-10-19T02:41:35;12.00;99.90
74384;DHT22;62824;52.994;-3.936;2023-10-19T02:44:07;12.00;99.90
74384;DHT22;62824;52.994;-3.936;2023-10-19T02:46:35;12.00;99.90
74384;DHT22;62824;52.994;-3.936;2023-10-19T02:49:05;12.00;99.90
74384;DHT22;62824;52.994;-3.936;2023-10-19T02:51:36;12.10;99.90
74384;DHT22;62824;52.994;-3.936;2023-10-19T02:54:02;12.10;99.90
74384;DHT22;62824;52.994;-3.936;2023-10-19T02:56:28;12.10;99.90
74384;DHT22;62824;52.994;-3.936;2023-10-19T02:58:56;12.10;99.90
74384;DHT22;62824;52.994;-3.936;2023-10-19T03:01:27;12.10;99.90
74384;DHT22;62824;52.994;-3.936;2023-10-19T03:04:00;12.10;99.90
74384;DHT22;62824;52.994;-3.936;2023-10-19T03:06:30;12.10;99.90
74384;DHT22;62824;52.994;-3.936;2023-10-19T03:09:00;12.10;99.90
74384;DHT22;62824;52.994;-3.936;2023-10-19T03:11:48;12.10;99.90
74384;DHT22;62824;52.994;-3.936;2023-10-19T03:14:18;12.10;99.90
74384;DHT22;62824;52.994;-3.936;2023-10-19T03:16:43;12.10;99.90
74384;DHT22;62824;52.994;-3.936;2023-10-19T03:19:11;12.10;99.90
74384;DHT22;62824;52.994;-3.936;2023-10-19T03:21:38;12.10;99.90
74384;DHT22;62824;52.994;-3.936;2023-10-19T03:24:11;12.10;99.90
74384;DHT22;62824;52.994;-3.936;2023-10-19T03:26:57;12.10;99.90
74384;DHT22;62824;52.994;-3.936;2023-10-19T03:29:25;12.10;99.90
74384;DHT22;62824;52.994;-3.936;2023-10-19T03:31:57;12.10;99.90
74384;DHT22;62824;52.994;-3.936;2023-10-19T03:34:27;12.10;99.90
74384;DHT22;62824;52.994;-3.936;2023-10-19T03:36:52;12.10;99.90
74384;DHT22;62824;52.994;-3.936;2023-10-19T03:39:20;12.10;99.90
74384;DHT22;62824;52.994;-3.936;2023-10-19T03:41:46;12.10;99.90
74384;DHT22;62824;52.994;-3.936;2023-10-19T03:44:15;12.10;99.90
74384;DHT22;62824;52.994;-3.936;2023-10-19T03:46:50;12.10;99.90
74384;DHT22;62824;52.994;-3.936;2023-10-19T03:49:22;12.20;99.90
74384;DHT22;62824;52.994;-3.936;2023-10-19T03:51:48;12.10;99.90
74384;DHT22;62824;52.994;-3.936;2023-10-19T03:54:45;12.10;99.90
74384;DHT22;62824;52.994;-3.936;2023-10-19T03:57:14;12.10;99.90
74384;DHT22;62824;52.994;-3.936;2023-10-19T03:59:45;12.10;99.90
74384;DHT22;62824;52.994;-3.936;2023-10-19T04:02:11;12.20;99.90
74384;DHT22;62824;52.994;-3.936;2023-10-19T04:04:42;12.20;99.90
74384;DHT22;62824;52.994;-3.936;2023-10-19T04:07:15;12.20;99.90
74384;DHT22;62824;52.994;-3.936;2023-10-19T04:09:51;12.20;99.90
74384;DHT22;62824;52.994;-3.936;2023-10-19T04:12:33;12.20;99.90
74384;DHT22;62824;52.994;-3.936;2023-10-19T04:15:01;12.30;99.90
74384;DHT22;62824;52.994;-3.936;2023-10-19T04:17:46;12.30;99.90
74384;DHT22;62824;52.994;-3.936;2023-10-19T04:20:17;12.30;99.90
74384;DHT22;62824;52.994;-3.936;2023-10-19T04:22:44;12.30;99.90
74384;DHT22;62824;52.994;-3.936;2023-10-19T04:25:10;12.40;99.90
74384;DHT22;62824;52.994;-3.936;2023-10-19T04:27:45;12.40;99.90
74384;DHT22;62824;52.994;-3.936;2023-10-19T04:30:12;12.40;99.90
74384;DHT22;62824;52.994;-3.936;2023-10-19T04:32:48;12.30;99.90
74384;DHT22;62824;52.994;-3.936;2023-10-19T04:35:19;12.40;99.90
74384;DHT22;62824;52.994;-3.936;2023-10-19T04:37:52;12.40;99.90
74384;DHT22;62824;52.994;-3.936;2023-10-19T04:40:18;12.40;99.90
74384;DHT22;62824;52.994;-3.936;2023-10-19T04:42:45;12.40;99.90
74384;DHT22;62824;52.994;-3.936;2023-10-19T04:45:12;12.40;99.90
74384;DHT22;62824;52.994;-3.936;2023-10-19T04:47:39;12.40;99.90
74384;DHT22;62824;52.994;-3.936;2023-10-19T04:50:06;12.40;99.90
74384;DHT22;62824;52.994;-3.936;2023-10-19T04:52:32;12.40;99.90
74384;DHT22;62824;52.994;-3.936;2023-10-19T04:54:59;12.40;99.90
74384;DHT22;62824;52.994;-3.936;2023-10-19T04:57:25;12.40;99.90
74384;DHT22;62824;52.994;-3.936;2023-10-19T04:59:53;12.40;99.90
74384;DHT22;62824;52.994;-3.936;2023-10-19T05:02:19;12.30;99.90
74384;DHT22;62824;52.994;-3.936;2023-10-19T05:04:45;12.20;99.90
74384;DHT22;62824;52.994;-3.936;2023-10-19T05:07:11;12.20;99.90
74384;DHT22;62824;52.994;-3.936;2023-10-19T05:09:42;12.20;99.90
74384;DHT22;62824;52.994;-3.936;2023-10-19T05:12:08;12.10;99.90
74384;DHT22;62824;52.994;-3.936;2023-10-19T05:14:42;12.20;99.90
74384;DHT22;62824;52.994;-3.936;2023-10-19T05:17:08;12.20;99.90
74384;DHT22;62824;52.994;-3.936;2023-10-19T05:19:35;12.20;99.90
74384;DHT22;62824;52.994;-3.936;2023-10-19T05:22:04;12.20;99.90
74384;DHT22;62824;52.994;-3.936;2023-10-19T05:24:31;12.20;99.90
74384;DHT22;62824;52.994;-3.936;2023-10-19T05:26:58;12.20;99.90
74384;DHT22;62824;52.994;-3.936;2023-10-19T05:29:23;12.20;99.90
74384;DHT22;62824;52.994;-3.936;2023-10-19T05:31:51;12.20;99.90
74384;DHT22;62824;52.994;-3.936;2023-10-19T05:34:21;12.20;99.90
74384;DHT22;62824;52.994;-3.936;2023-10-19T05:36:47;12.30;99.90
74384;DHT22;62824;52.994;-3.936;2023-10-19T05:39:15;12.30;99.90
74384;DHT22;62824;52.994;-3.936;2023-10-19T05:41:41;12.30;99.90
74384;DHT22;62824;52.994;-3.936;2023-10-19T05:44:08;12.30;99.90
74384;DHT22;62824;52.994;-3.936;2023-10-19T05:46:33;12.30;99.90
74384;DHT22;62824;52.994;-3.936;2023-10-19T05:48:59;12.30;99.90
74384;DHT22;62824;52.994;-3.936;2023-10-19T05:51:27;12.30;99.90
74384;DHT22;62824;52.994;-3.936;2023-10-19T05:53:52;12.30;99.90
74384;DHT22;62824;52.994;-3.936;2023-10-19T05:56:19;12.30;99.90
74384;DHT22;62824;52.994;-3.936;2023-10-19T05:58:46;12.30;99.90
74384;DHT22;62824;52.994;-3.936;2023-10-19T06:01:16;12.30;99.90
74384;DHT22;62824;52.994;-3.936;2023-10-19T06:03:43;12.40;99.90
74384;DHT22;62824;52.994;-3.936;2023-10-19T06:06:09;12.40;99.90
74384;DHT22;62824;52.994;-3.936;2023-10-19T06:08:35;12.40;99.90
74384;DHT22;62824;52.994;-3.936;2023-10-19T06:11:01;12.40;99.90
74384;DHT22;62824;52.994;-3.936;2023-10-19T06:13:28;12.40;99.90
74384;DHT22;62824;52.994;-3.936;2023-10-19T06:15:55;12.40;99.90
74384;DHT22;62824;52.994;-3.936;2023-10-19T06:18:21;12.40;99.90
74384;DHT22;62824;52.994;-3.936;2023-10-19T06:20:47;12.40;99.90
74384;DHT22;62824;52.994;-3.936;2023-10-19T06:23:13;12.40;99.90
74384;DHT22;62824;52.994;-3.936;2023-10-19T06:25:39;12.50;99.90
74384;DHT22;62824;52.994;-3.936;2023-10-19T06:28:08;12.40;99.90
74384;DHT22;62824;52.994;-3.936;2023-10-19T06:30:34;12.40;99.90
74384;DHT22;62824;52.994;-3.936;2023-10-19T06:33:00;12.40;99.90
74384;DHT22;62824;52.994;-3.936;2023-10-19T06:35:27;12.40;99.90
74384;DHT22;62824;52.994;-3.936;2023-10-19T06:37:54;12.40;99.90
74384;DHT22;62824;52.994;-3.936;2023-10-19T06:40:21;12.40;99.90
74384;DHT22;62824;52.994;-3.936;2023-10-19T06:42:48;12.40;99.90
74384;DHT22;62824;52.994;-3.936;2023-10-19T06:45:16;12.30;99.90
74384;DHT22;62824;52.994;-3.936;2023-10-19T06:47:42;12.40;99.90
74384;DHT22;62824;52.994;-3.936;2023-10-19T06:50:11;12.40;99.90
74384;DHT22;62824;52.994;-3.936;2023-10-19T06:52:38;12.40;99.90
74384;DHT22;62824;52.994;-3.936;2023-10-19T06:55:05;12.50;99.90
74384;DHT22;62824;52.994;-3.936;2023-10-19T06:57:32;12.50;99.90
74384;DHT22;62824;52.994;-3.936;2023-10-19T06:59:59;12.50;99.90
74384;DHT22;62824;52.994;-3.936;2023-10-19T07:02:25;12.50;99.90
74384;DHT22;62824;52.994;-3.936;2023-10-19T07:04:52;12.60;99.90
74384;DHT22;62824;52.994;-3.936;2023-10-19T07:07:17;12.60;99.90
74384;DHT22;62824;52.994;-3.936;2023-10-19T07:09:44;12.60;99.90
74384;DHT22;62824;52.994;-3.936;2023-10-19T07:12:09;12.60;99.90
74384;DHT22;62824;52.994;-3.936;2023-10-19T07:14:35;12.60;99.90
74384;DHT22;62824;52.994;-3.936;2023-10-19T07:17:01;12.60;99.90
74384;DHT22;62824;52.994;-3.936;2023-10-19T07:19:27;12.60;99.90
74384;DHT22;62824;52.994;-3.936;2023-10-19T07:21:54;12.60;99.90
74384;DHT22;62824;52.994;-3.936;2023-10-19T07:24:26;12.60;99.90
74384;DHT22;62824;52.994;-3.936;2023-10-19T07:26:52;12.60;99.90
74384;DHT22;62824;52.994;-3.936;2023-10-19T07:29:33;12.60;99.90
74384;DHT22;62824;52.994;-3.936;2023-10-19T07:32:02;12.70;99.90
74384;DHT22;62824;52.994;-3.936;2023-10-19T07:34:31;12.70;99.90
74384;DHT22;62824;52.994;-3.936;2023-10-19T07:36:58;12.70;99.90
74384;DHT22;62824;52.994;-3.936;2023-10-19T07:39:26;12.70;99.90
74384;DHT22;62824;52.994;-3.936;2023-10-19T07:41:56;12.70;99.90
74384;DHT22;62824;52.994;-3.936;2023-10-19T07:44:22;12.80;99.90
74384;DHT22;62824;52.994;-3.936;2023-10-19T07:46:48;12.70;99.90
74384;DHT22;62824;52.994;-3.936;2023-10-19T07:49:14;12.80;99.90
74384;DHT22;62824;52.994;-3.936;2023-10-19T07:51:47;12.80;99.90
74384;DHT22;62824;52.994;-3.936;2023-10-19T07:54:13;12.80;99.90
74384;DHT22;62824;52.994;-3.936;2023-10-19T07:56:39;12.80;99.90
74384;DHT22;62824;52.994;-3.936;2023-10-19T07:59:05;12.80;99.90
74384;DHT22;62824;52.994;-3.936;2023-10-19T08:01:32;12.90;99.90
74384;DHT22;62824;52.994;-3.936;2023-10-19T08:03:58;13.00;99.90
74384;DHT22;62824;52.994;-3.936;2023-10-19T08:06:24;13.00;99.90
74384;DHT22;62824;52.994;-3.936;2023-10-19T08:08:49;13.00;99.90
74384;DHT22;62824;52.994;-3.936;2023-10-19T08:11:16;13.00;99.90
74384;DHT22;62824;52.994;-3.936;2023-10-19T08:13:42;13.00;99.90
74384;DHT22;62824;52.994;-3.936;2023-10-19T08:16:08;13.10;99.90
74384;DHT22;62824;52.994;-3.936;2023-10-19T08:18:34;13.10;99.90
74384;DHT22;62824;52.994;-3.936;2023-10-19T08:21:03;13.20;99.90
74384;DHT22;62824;52.994;-3.936;2023-10-19T08:23:28;13.20;99.90
74384;DHT22;62824;52.994;-3.936;2023-10-19T08:25:57;13.20;99.90
74384;DHT22;62824;52.994;-3.936;2023-10-19T08:28:24;13.20;99.90
74384;DHT22;62824;52.994;-3.936;2023-10-19T08:30:50;13.30;99.90
74384;DHT22;62824;52.994;-3.936;2023-10-19T08:33:26;13.30;99.90
74384;DHT22;62824;52.994;-3.936;2023-10-19T08:35:56;13.40;99.90
74384;DHT22;62824;52.994;-3.936;2023-10-19T08:38:23;13.30;99.90
74384;DHT22;62824;52.994;-3.936;2023-10-19T08:40:49;13.30;99.90
74384;DHT22;62824;52.994;-3.936;2023-10-19T08:43:17;13.40;99.90
74384;DHT22;62824;52.994;-3.936;2023-10-19T08:45:44;13.40;99.90
74384;DHT22;62824;52.994;-3.936;2023-10-19T08:48:11;13.40;99.90
74384;DHT22;62824;52.994;-3.936;2023-10-19T08:50:37;13.50;99.90
74384;DHT22;62824;52.994;-3.936;2023-10-19T08:53:04;13.60;99.90
74384;DHT22;62824;52.994;-3.936;2023-10-19T08:55:31;13.60;99.90
74384;DHT22;62824;52.994;-3.936;2023-10-19T08:57:57;13.70;99.90
74384;DHT22;62824;52.994;-3.936;2023-10-19T09:00:26;13.70;99.90
74384;DHT22;62824;52.994;-3.936;2023-10-19T09:02:53;13.80;99.90
74384;DHT22;62824;52.994;-3.936;2023-10-19T09:05:20;13.80;99.90
74384;DHT22;62824;52.994;-3.936;2023-10-19T09:07:53;14.00;99.90
74384;DHT22;62824;52.994;-3.936;2023-10-19T09:10:27;14.10;99.90
74384;DHT22;62824;52.994;-3.936;2023-10-19T09:13:07;14.10;99.90
74384;DHT22;62824;52.994;-3.936;2023-10-19T09:15:39;14.10;99.90
74384;DHT22;62824;52.994;-3.936;2023-10-19T09:18:19;14.20;99.90
74384;DHT22;62824;52.994;-3.936;2023-10-19T09:20:46;14.20;99.90
74384;DHT22;62824;52.994;-3.936;2023-10-19T09:23:20;14.30;99.90
74384;DHT22;62824;52.994;-3.936;2023-10-19T09:25:49;14.40;99.90
74384;DHT22;62824;52.994;-3.936;2023-10-19T09:28:16;14.40;99.90
74384;DHT22;62824;52.994;-3.936;2023-10-19T09:30:43;14.50;99.90
74384;DHT22;62824;52.994;-3.936;2023-10-19T09:33:09;14.60;99.90
74384;DHT22;62824;52.994;-3.936;2023-10-19T09:35:35;14.70;99.90
74384;DHT22;62824;52.994;-3.936;2023-10-19T09:38:04;14.70;99.90
74384;DHT22;62824;52.994;-3.936;2023-10-19T09:40:32;14.80;99.90
74384;DHT22;62824;52.994;-3.936;2023-10-19T09:43:03;14.90;99.90
74384;DHT22;62824;52.994;-3.936;2023-10-19T09:45:30;15.50;99.90
74384;DHT22;62824;52.994;-3.936;2023-10-19T09:48:00;16.70;99.90
74384;DHT22;62824;52.994;-3.936;2023-10-19T09:50:27;16.50;99.90
74384;DHT22;62824;52.994;-3.936;2023-10-19T09:52:53;16.20;99.90
74384;DHT22;62824;52.994;-3.936;2023-10-19T09:55:28;16.00;99.90
74384;DHT22;62824;52.994;-3.936;2023-10-19T10:00:24;16.60;99.90
74384;DHT22;62824;52.994;-3.936;2023-10-19T10:02:50;17.40;99.90
74384;DHT22;62824;52.994;-3.936;2023-10-19T10:10:52;16.80;99.90
74384;DHT22;62824;52.994;-3.936;2023-10-19T10:15:54;16.30;99.90
74384;DHT22;62824;52.994;-3.936;2023-10-19T10:18:26;16.20;99.90
74384;DHT22;62824;52.994;-3.936;2023-10-19T10:21:21;16.30;99.90
74384;DHT22;62824;52.994;-3.936;2023-10-19T10:23:57;16.30;99.90
74384;DHT22;62824;52.994;-3.936;2023-10-19T10:26:26;16.40;99.90
74384;DHT22;62824;52.994;-3.936;2023-10-19T10:29:15;16.60;99.90
74384;DHT22;62824;52.994;-3.936;2023-10-19T10:31:50;16.80;99.90
74384;DHT22;62824;52.994;-3.936;2023-10-19T10:37:04;17.20;99.90
74384;DHT22;62824;52.994;-3.936;2023-10-19T10:39:31;17.00;99.90
74384;DHT22;62824;52.994;-3.936;2023-10-19T10:42:03;16.80;99.90
74384;DHT22;62824;52.994;-3.936;2023-10-19T10:44:46;16.70;99.90
74384;DHT22;62824;52.994;-3.936;2023-10-19T10:47:30;16.50;99.90
74384;DHT22;62824;52.994;-3.936;2023-10-19T10:49:58;16.30;99.90
74384;DHT22;62824;52.994;-3.936;2023-10-19T10:54:58;16.10;99.90
74384;DHT22;62824;52.994;-3.936;2023-10-19T10:57:31;16.00;99.90
74384;DHT22;62824;52.994;-3.936;2023-10-19T11:00:00;16.00;99.90
74384;DHT22;62824;52.994;-3.936;2023-10-19T11:02:26;16.00;99.90
74384;DHT22;62824;52.994;-3.936;2023-10-19T11:04:51;15.90;99.90
74384;DHT22;62824;52.994;-3.936;2023-10-19T11:07:18;15.90;99.90
74384;DHT22;62824;52.994;-3.936;2023-10-19T11:09:46;15.90;99.90
74384;DHT22;62824;52.994;-3.936;2023-10-19T11:12:12;15.90;99.90
74384;DHT22;62824;52.994;-3.936;2023-10-19T11:14:55;15.90;99.90
74384;DHT22;62824;52.994;-3.936;2023-10-19T11:17:21;16.00;99.90
74384;DHT22;62824;52.994;-3.936;2023-10-19T11:19:54;16.00;99.90
74384;DHT22;62824;52.994;-3.936;2023-10-19T11:22:22;16.20;99.90
74384;DHT22;62824;52.994;-3.936;2023-10-19T11:24:50;16.30;99.90
74384;DHT22;62824;52.994;-3.936;2023-10-19T11:27:24;16.40;99.90
74384;DHT22;62824;52.994;-3.936;2023-10-19T11:29:54;16.40;99.90
74384;DHT22;62824;52.994;-3.936;2023-10-19T11:32:21;16.40;99.90
74384;DHT22;62824;52.994;-3.936;2023-10-19T11:34:47;16.50;99.90
74384;DHT22;62824;52.994;-3.936;2023-10-19T11:37:13;16.50;99.90
74384;DHT22;62824;52.994;-3.936;2023-10-19T11:39:39;16.60;99.90
74384;DHT22;62824;52.994;-3.936;2023-10-19T11:42:05;16.80;99.90
74384;DHT22;62824;52.994;-3.936;2023-10-19T11:44:31;17.20;99.90
74384;DHT22;62824;52.994;-3.936;2023-10-19T11:46:57;18.00;99.90
74384;DHT22;62824;52.994;-3.936;2023-10-19T11:49:22;18.00;99.90
74384;DHT22;62824;52.994;-3.936;2023-10-19T11:51:48;17.80;99.90
74384;DHT22;62824;52.994;-3.936;2023-10-19T11:54:14;17.50;99.90
74384;DHT22;62824;52.994;-3.936;2023-10-19T11:56:39;17.30;99.90
74384;DHT22;62824;52.994;-3.936;2023-10-19T11:59:05;17.20;99.90
74384;DHT22;62824;52.994;-3.936;2023-10-19T12:01:32;17.20;99.90
74384;DHT22;62824;52.994;-3.936;2023-10-19T12:03:58;17.30;99.90
74384;DHT22;62824;52.994;-3.936;2023-10-19T12:06:25;17.20;99.90
74384;DHT22;62824;52.994;-3.936;2023-10-19T12:08:51;17.20;99.90
74384;DHT22;62824;52.994;-3.936;2023-10-19T12:11:17;17.40;99.90
74384;DHT22;62824;52.994;-3.936;2023-10-19T12:13:45;17.50;99.90
74384;DHT22;62824;52.994;-3.936;2023-10-19T12:16:11;17.40;99.90
74384;DHT22;62824;52.994;-3.936;2023-10-19T12:18:49;17.50;99.90
74384;DHT22;62824;52.994;-3.936;2023-10-19T12:21:15;17.90;99.90
74384;DHT22;62824;52.994;-3.936;2023-10-19T12:23:44;18.40;99.90
74384;DHT22;62824;52.994;-3.936;2023-10-19T12:26:10;18.40;99.90
74384;DHT22;62824;52.994;-3.936;2023-10-19T12:28:43;18.10;99.90
74384;DHT22;62824;52.994;-3.936;2023-10-19T12:31:09;17.80;99.90
74384;DHT22;62824;52.994;-3.936;2023-10-19T12:33:39;17.80;99.90
74384;DHT22;62824;52.994;-3.936;2023-10-19T12:36:07;17.60;99.90
74384;DHT22;62824;52.994;-3.936;2023-10-19T12:38:52;17.40;99.90
74384;DHT22;62824;52.994;-3.936;2023-10-19T12:41:21;17.20;99.90
74384;DHT22;62824;52.994;-3.936;2023-10-19T12:43:47;17.10;99.90
74384;DHT22;62824;52.994;-3.936;2023-10-19T12:46:16;16.80;99.90
74384;DHT22;62824;52.994;-3.936;2023-10-19T12:48:42;16.50;99.90
74384;DHT22;62824;52.994;-3.936;2023-10-19T12:51:08;16.40;99.90
74384;DHT22;62824;52.994;-3.936;2023-10-19T12:53:37;16.40;99.90
74384;DHT22;62824;52.994;-3.936;2023-10-19T12:56:05;16.30;99.90
74384;DHT22;62824;52.994;-3.936;2023-10-19T12:58:31;16.30;99.90
74384;DHT22;62824;52.994;-3.936;2023-10-19T13:00:58;16.30;99.90
74384;DHT22;62824;52.994;-3.936;2023-10-19T13:03:24;16.20;99.90
74384;DHT22;62824;52.994;-3.936;2023-10-19T13:05:56;16.30;99.90
74384;DHT22;62824;52.994;-3.936;2023-10-19T13:08:23;16.30;99.90
74384;DHT22;62824;52.994;-3.936;2023-10-19T13:10:49;16.40;99.90
74384;DHT22;62824;52.994;-3.936;2023-10-19T13:13:16;16.50;99.90
74384;DHT22;62824;52.994;-3.936;2023-10-19T13:15:44;16.60;99.90
74384;DHT22;62824;52.994;-3.936;2023-10-19T13:18:11;16.70;99.90
74384;DHT22;62824;52.994;-3.936;2023-10-19T13:20:39;16.80;99.90
74384;DHT22;62824;52.994;-3.936;2023-10-19T13:23:10;16.90;99.90
74384;DHT22;62824;52.994;-3.936;2023-10-19T13:25:41;17.00;99.90
74384;DHT22;62824;52.994;-3.936;2023-10-19T13:28:12;17.10;99.90
74384;DHT22;62824;52.994;-3.936;2023-10-19T13:30:39;17.10;99.90
74384;DHT22;62824;52.994;-3.936;2023-10-19T13:33:06;17.30;99.90
74384;DHT22;62824;52.994;-3.936;2023-10-19T13:35:39;17.30;99.90
74384;DHT22;62824;52.994;-3.936;2023-10-19T13:38:06;17.50;99.90
74384;DHT22;62824;52.994;-3.936;2023-10-19T13:40:34;17.70;99.90
74384;DHT22;62824;52.994;-3.936;2023-10-19T13:43:00;18.30;99.90
74384;DHT22;62824;52.994;-3.936;2023-10-19T13:45:26;18.70;99.90
74384;DHT22;62824;52.994;-3.936;2023-10-19T13:47:52;18.50;99.90
74384;DHT22;62824;52.994;-3.936;2023-10-19T13:50:24;18.40;99.90
74384;DHT22;62824;52.994;-3.936;2023-10-19T13:52:53;18.40;99.90
74384;DHT22;62824;52.994;-3.936;2023-10-19T13:55:20;18.30;99.90
74384;DHT22;62824;52.994;-3.936;2023-10-19T13:57:49;18.30;99.90
74384;DHT22;62824;52.994;-3.936;2023-10-19T14:00:16;17.90;99.90
74384;DHT22;62824;52.994;-3.936;2023-10-19T14:02:49;17.80;99.90
74384;DHT22;62824;52.994;-3.936;2023-10-19T14:05:15;17.60;99.90
74384;DHT22;62824;52.994;-3.936;2023-10-19T14:07:41;17.80;99.90
74384;DHT22;62824;52.994;-3.936;2023-10-19T14:10:08;17.70;99.90
74384;DHT22;62824;52.994;-3.936;2023-10-19T14:12:37;17.60;99.90
74384;DHT22;62824;52.994;-3.936;2023-10-19T14:15:03;17.80;99.90
74384;DHT22;62824;52.994;-3.936;2023-10-19T14:17:29;17.90;99.90
74384;DHT22;62824;52.994;-3.936;2023-10-19T14:19:55;18.30;99.90
74384;DHT22;62824;52.994;-3.936;2023-10-19T14:22:21;18.20;99.90
74384;DHT22;62824;52.994;-3.936;2023-10-19T14:24:47;18.10;99.90
74384;DHT22;62824;52.994;-3.936;2023-10-19T14:27:13;18.10;99.90
74384;DHT22;62824;52.994;-3.936;2023-10-19T14:29:39;17.90;99.90
74384;DHT22;62824;52.994;-3.936;2023-10-19T14:32:05;18.00;99.90
74384;DHT22;62824;52.994;-3.936;2023-10-19T14:34:30;18.20;99.90
74384;DHT22;62824;52.994;-3.936;2023-10-19T14:36:56;18.80;99.90
74384;DHT22;62824;52.994;-3.936;2023-10-19T14:39:22;18.70;99.90
74384;DHT22;62824;52.994;-3.936;2023-10-19T14:41:50;18.70;99.90
74384;DHT22;62824;52.994;-3.936;2023-10-19T14:44:15;18.40;99.90
74384;DHT22;62824;52.994;-3.936;2023-10-19T14:46:41;18.50;99.90
74384;DHT22;62824;52.994;-3.936;2023-10-19T14:49:07;18.40;99.90
74384;DHT22;62824;52.994;-3.936;2023-10-19T14:51:33;18.30;99.90
74384;DHT22;62824;52.994;-3.936;2023-10-19T14:53:58;18.20;99.90
74384;DHT22;62824;52.994;-3.936;2023-10-19T14:56:24;18.00;99.90
74384;DHT22;62824;52.994;-3.936;2023-10-19T14:58:50;18.00;99.90
74384;DHT22;62824;52.994;-3.936;2023-10-19T15:01:26;17.80;99.90
74384;DHT22;62824;52.994;-3.936;2023-10-19T15:03:52;17.70;99.90
74384;DHT22;62824;52.994;-3.936;2023-10-19T15:06:17;17.60;99.90
74384;DHT22;62824;52.994;-3.936;2023-10-19T15:08:44;17.50;99.90
74384;DHT22;62824;52.994;-3.936;2023-10-19T15:11:09;17.50;99.90
74384;DHT22;62824;52.994;-3.936;2023-10-19T15:13:35;17.50;99.90
74384;DHT22;62824;52.994;-3.936;2023-10-19T15:16:08;17.40;99.90
74384;DHT22;62824;52.994;-3.936;2023-10-19T15:18:35;17.30;99.90
74384;DHT22;62824;52.994;-3.936;2023-10-19T15:21:09;17.30;99.90
74384;DHT22;62824;52.994;-3.936;2023-10-19T15:23:52;17.20;99.90
74384;DHT22;62824;52.994;-3.936;2023-10-19T15:26:21;17.10;99.90
74384;DHT22;62824;52.994;-3.936;2023-10-19T15:29:28;17.10;99.90
74384;DHT22;62824;52.994;-3.936;2023-10-19T15:47:23;16.80;99.90
74384;DHT22;62824;52.994;-3.936;2023-10-19T15:49:54;16.70;99.90
74384;DHT22;62824;52.994;-3.936;2023-10-19T15:52:24;16.70;99.90
74384;DHT22;62824;52.994;-3.936;2023-10-19T15:54:51;16.70;99.90
74384;DHT22;62824;52.994;-3.936;2023-10-19T15:57:17;16.70;99.90
74384;DHT22;62824;52.994;-3.936;2023-10-19T15:59:44;16.70;99.90
74384;DHT22;62824;52.994;-3.936;2023-10-19T16:02:14;16.70;99.90
74384;DHT22;62824;52.994;-3.936;2023-10-19T16:04:41;16.60;99.90